sensor_id;sensor_type;location;lat;lon;timestamp;pressure;altitude;pressure_sealevel;temperature;humidity
2339;BME280;1180;51.438;6.978;2023-08-30T00:00:17;99594.91;;;18.80;84.14
2339;BME280;1180;51.438;6.978;2023-08-30T00:02:44;99595.25;;;18.76;84.34
2339;BME280;1180;51.438;6.978;2023-08-30T00:05:10;99594.09;;;18.87;83.72
2339;BME280;1180;51.438;6.978;2023-08-30T00:07:36;99589.88;;;18.78;83.76
2339;BME280;1180;51.438;6.978;2023-08-30T00:10:03;99586.47;;;18.77;83.98
2339;BME280;1180;51.438;6.978;2023-08-30T00:12:29;99592.78;;;18.75;83.83
2339;BME280;1180;51.438;6.978;2023-08-30T00:14:55;99592.47;;;18.78;83.90
2339;BME280;1180;51.438;6.978;2023-08-30T00:17:22;99589.88;;;18.70;84.04
2339;BME280;1180;51.438;6.978;2023-08-30T00:19:48;99585.16;;;18.73;83.96
2339;BME280;1180;51.438;6.978;2023-08-30T00:22:14;99590.19;;;18.67;84.19
2339;BME280;1180;51.438;6.978;2023-08-30T00:24:40;99584.16;;;18.66;84.07
2339;BME280;1180;51.438;6.978;2023-08-30T00:27:06;99589.22;;;18.68;84.40
2339;BME280;1180;51.438;6.978;2023-08-30T00:29:31;99587.25;;;18.70;84.06
2339;BME280;1180;51.438;6.978;2023-08-30T00:31:57;99587.41;;;18.68;84.43
2339;BME280;1180;51.438;6.978;2023-08-30T00:34:23;99590.97;;;18.67;84.35
2339;BME280;1180;51.438;6.978;2023-08-30T00:36:49;99581.88;;;18.63;84.27
2339;BME280;1180;51.438;6.978;2023-08-30T00:39:14;99589.84;;;18.61;85.00
2339;BME280;1180;51.438;6.978;2023-08-30T00:41:40;99583.38;;;18.66;84.32
2339;BME280;1180;51.438;6.978;2023-08-30T00:44:06;99581.88;;;18.55;84.72
2339;BME280;1180;51.438;6.978;2023-08-30T00:46:33;99581.38;;;18.51;84.63
2339;BME280;1180;51.438;6.978;2023-08-30T00:49:00;99584.63;;;18.45;84.77
2339;BME280;1180;51.438;6.978;2023-08-30T00:51:26;99586.72;;;18.41;85.43
2339;BME280;1180;51.438;6.978;2023-08-30T00:53:56;99588.50;;;18.41;85.16
2339;BME280;1180;51.438;6.978;2023-08-30T00:56:22;99587.00;;;18.30;85.95
2339;BME280;1180;51.438;6.978;2023-08-30T00:58:49;99582.59;;;18.22;86.80
2339;BME280;1180;51.438;6.978;2023-08-30T01:01:16;99581.13;;;18.19;86.50
2339;BME280;1180;51.438;6.978;2023-08-30T01:03:42;99579.53;;;18.27;86.23
2339;BME280;1180;51.438;6.978;2023-08-30T01:06:09;99576.09;;;18.18;86.36
2339;BME280;1180;51.438;6.978;2023-08-30T01:08:38;99573.19;;;18.21;86.58
2339;BME280;1180;51.438;6.978;2023-08-30T01:14:03;99571.22;;;18.15;87.22
2339;BME280;1180;51.438;6.978;2023-08-30T01:16:30;99569.59;;;18.14;87.69
2339;BME280;1180;51.438;6.978;2023-08-30T01:18:57;99558.88;;;18.17;87.39
2339;BME280;1180;51.438;6.978;2023-08-30T01:22:25;99549.66;;;18.14;87.19
2339;BME280;1180;51.438;6.978;2023-08-30T01:24:47;99540.34;;;18.03;88.23
2339;BME280;1180;51.438;6.978;2023-08-30T01:27:15;99538.41;;;18.06;88.55
2339;BME280;1180;51.438;6.978;2023-08-30T01:29:44;99540.34;;;18.03;88.72
2339;BME280;1180;51.438;6.978;2023-08-30T01:32:11;99543.25;;;18.00;89.14
2339;BME280;1180;51.438;6.978;2023-08-30T01:34:39;99544.06;;;18.01;89.24
2339;BME280;1180;51.438;6.978;2023-08-30T01:37:09;99538.19;;;17.99;89.30
2339;BME280;1180;51.438;6.978;2023-08-30T01:39:36;99545.19;;;17.98;89.53
2339;BME280;1180;51.438;6.978;2023-08-30T01:42:03;99544.00;;;17.93;89.13
2339;BME280;1180;51.438;6.978;2023-08-30T01:44:30;99544.00;;;17.93;89.26
2339;BME280;1180;51.438;6.978;2023-08-30T01:46:57;99536.69;;;17.88;90.09
2339;BME280;1180;51.438;6.978;2023-08-30T01:49:26;99537.84;;;17.94;89.58
2339;BME280;1180;51.438;6.978;2023-08-30T01:51:53;99541.59;;;17.91;89.63
2339;BME280;1180;51.438;6.978;2023-08-30T01:54:20;99539.44;;;17.86;90.31
2339;BME280;1180;51.438;6.978;2023-08-30T01:56:46;99538.78;;;17.84;89.74
2339;BME280;1180;51.438;6.978;2023-08-30T01:59:12;99542.19;;;17.85;90.21
2339;BME280;1180;51.438;6.978;2023-08-30T02:01:38;99537.97;;;17.84;90.25
2339;BME280;1180;51.438;6.978;2023-08-30T02:04:04;99536.84;;;17.78;90.43
2339;BME280;1180;51.438;6.978;2023-08-30T02:06:45;99547.03;;;17.80;90.15
2339;BME280;1180;51.438;6.978;2023-08-30T02:09:38;99545.22;;;17.72;90.69
2339;BME280;1180;51.438;6.978;2023-08-30T02:12:14;99552.19;;;17.71;90.94
2339;BME280;1180;51.438;6.978;2023-08-30T02:14:44;99554.13;;;17.69;91.06
2339;BME280;1180;51.438;6.978;2023-08-30T02:17:14;99550.88;;;17.67;91.32
2339;BME280;1180;51.438;6.978;2023-08-30T02:19:40;99552.16;;;17.63;91.74
2339;BME280;1180;51.438;6.978;2023-08-30T02:22:06;99552.16;;;17.63;91.88
2339;BME280;1180;51.438;6.978;2023-08-30T02:24:32;99554.75;;;17.63;92.06
2339;BME280;1180;51.438;6.978;2023-08-30T02:26:58;99552.31;;;17.61;92.24
2339;BME280;1180;51.438;6.978;2023-08-30T02:29:23;99549.72;;;17.61;92.37
2339;BME280;1180;51.438;6.978;2023-08-30T02:31:49;99546.78;;;17.56;92.21
2339;BME280;1180;51.438;6.978;2023-08-30T02:34:15;99553.59;;;17.57;92.47
2339;BME280;1180;51.438;6.978;2023-08-30T02:36:41;99552.50;;;17.68;92.39
2339;BME280;1180;51.438;6.978;2023-08-30T02:39:07;99558.03;;;17.73;91.40
2339;BME280;1180;51.438;6.978;2023-08-30T02:41:33;99552.53;;;17.76;91.05
2339;BME280;1180;51.438;6.978;2023-08-30T02:44:00;99542.78;;;17.70;91.42
2339;BME280;1180;51.438;6.978;2023-08-30T02:46:25;99540.88;;;17.81;90.98
2339;BME280;1180;51.438;6.978;2023-08-30T02:48:51;99535.34;;;17.75;90.48
2339;BME280;1180;51.438;6.978;2023-08-30T02:51:17;99542.16;;;17.76;90.80
2339;BME280;1180;51.438;6.978;2023-08-30T02:53:43;99524.63;;;17.70;91.15
2339;BME280;1180;51.438;6.978;2023-08-30T02:56:09;99531.59;;;17.70;91.02
2339;BME280;1180;51.438;6.978;2023-08-30T02:58:36;99529.66;;;17.72;91.13
2339;BME280;1180;51.438;6.978;2023-08-30T03:01:02;99530.75;;;17.61;91.23
2339;BME280;1180;51.438;6.978;2023-08-30T03:03:28;99519.84;;;17.57;91.50
2339;BME280;1180;51.438;6.978;2023-08-30T03:05:54;99516.16;;;17.60;91.36
2339;BME280;1180;51.438;6.978;2023-08-30T03:08:19;99516.25;;;17.50;91.76
2339;BME280;1180;51.438;6.978;2023-08-30T03:10:45;99519.19;;;17.55;91.65
2339;BME280;1180;51.438;6.978;2023-08-30T03:13:11;99522.09;;;17.52;91.44
2339;BME280;1180;51.438;6.978;2023-08-30T03:15:37;99513.47;;;17.43;92.50
2339;BME280;1180;51.438;6.978;2023-08-30T03:18:03;99521.56;;;17.40;92.76
2339;BME280;1180;51.438;6.978;2023-08-30T03:20:29;99523.19;;;17.41;92.33
2339;BME280;1180;51.438;6.978;2023-08-30T03:22:57;99516.47;;;17.30;92.91
2339;BME280;1180;51.438;6.978;2023-08-30T03:25:23;99520.44;;;17.43;92.72
2339;BME280;1180;51.438;6.978;2023-08-30T03:27:49;99518.81;;;17.42;92.14
2339;BME280;1180;51.438;6.978;2023-08-30T03:30:15;99514.28;;;17.44;92.17
2339;BME280;1180;51.438;6.978;2023-08-30T03:32:40;99510.25;;;17.50;91.62
2339;BME280;1180;51.438;6.978;2023-08-30T03:35:06;99509.28;;;17.51;91.16
2339;BME280;1180;51.438;6.978;2023-08-30T03:37:32;99504.09;;;17.51;91.25
2339;BME280;1180;51.438;6.978;2023-08-30T03:39:58;99497.28;;;17.50;91.33
2339;BME280;1180;51.438;6.978;2023-08-30T03:42:24;99496.00;;;17.54;90.94
2339;BME280;1180;51.438;6.978;2023-08-30T03:44:49;99495.72;;;17.57;90.54
2339;BME280;1180;51.438;6.978;2023-08-30T03:47:15;99498.25;;;17.49;91.04
2339;BME280;1180;51.438;6.978;2023-08-30T03:49:41;99497.91;;;17.43;92.04
2339;BME280;1180;51.438;6.978;2023-08-30T03:52:07;99498.56;;;17.45;92.13
2339;BME280;1180;51.438;6.978;2023-08-30T03:54:33;99499.69;;;17.43;91.90
2339;BME280;1180;51.438;6.978;2023-08-30T03:56:59;99505.38;;;17.46;91.94
2339;BME280;1180;51.438;6.978;2023-08-30T03:59:25;99491.25;;;17.41;92.33
2339;BME280;1180;51.438;6.978;2023-08-30T04:01:52;99494.63;;;17.33;92.65
2339;BME280;1180;51.438;6.978;2023-08-30T04:04:18;99495.94;;;17.37;92.83
2339;BME280;1180;51.438;6.978;2023-08-30T04:06:44;99498.25;;;17.49;92.32
2339;BME280;1180;51.438;6.978;2023-08-30T04:09:10;99493.06;;;17.49;91.69
2339;BME280;1180;51.438;6.978;2023-08-30T04:11:36;99484.63;;;17.46;91.88
2339;BME280;1180;51.438;6.978;2023-08-30T04:14:02;99478.78;;;17.44;92.19
2339;BME280;1180;51.438;6.978;2023-08-30T04:16:27;99482.69;;;17.49;91.87
2339;BME280;1180;51.438;6.978;2023-08-30T04:18:54;99476.53;;;17.50;91.40
2339;BME280;1180;51.438;6.978;2023-08-30T04:21:19;99478.28;;;17.41;91.52
2339;BME280;1180;51.438;6.978;2023-08-30T04:23:45;99478.84;;;17.26;92.84
2339;BME280;1180;51.438;6.978;2023-08-30T04:26:11;99481.41;;;17.18;94.05
2339;BME280;1180;51.438;6.978;2023-08-30T04:28:36;99476.72;;;17.22;93.71
2339;BME280;1180;51.438;6.978;2023-08-30T04:31:02;99476.72;;;17.22;93.75
2339;BME280;1180;51.438;6.978;2023-08-30T04:33:28;99469.31;;;17.27;93.64
2339;BME280;1180;51.438;6.978;2023-08-30T04:35:54;99470.09;;;17.27;93.34
2339;BME280;1180;51.438;6.978;2023-08-30T04:38:20;99463.31;;;17.35;93.02
2339;BME280;1180;51.438;6.978;2023-08-30T04:40:47;99459.41;;;17.30;93.00
2339;BME280;1180;51.438;6.978;2023-08-30T04:43:13;99457.59;;;17.23;93.62
2339;BME280;1180;51.438;6.978;2023-08-30T04:45:38;99459.59;;;17.29;93.19
2339;BME280;1180;51.438;6.978;2023-08-30T04:48:05;99458.72;;;17.20;93.44
2339;BME280;1180;51.438;6.978;2023-08-30T04:50:30;99455.63;;;17.16;94.17
2339;BME280;1180;51.438;6.978;2023-08-30T04:52:57;99453.34;;;17.13;94.64
2339;BME280;1180;51.438;6.978;2023-08-30T04:55:28;99452.22;;;17.16;94.68
2339;BME280;1180;51.438;6.978;2023-08-30T04:57:55;99449.16;;;17.21;94.44
2339;BME280;1180;51.438;6.978;2023-08-30T05:00:20;99445.59;;;17.22;93.99
2339;BME280;1180;51.438;6.978;2023-08-30T05:02:46;99437.00;;;17.21;94.16
2339;BME280;1180;51.438;6.978;2023-08-30T05:05:14;99446.06;;;17.17;95.20
2339;BME280;1180;51.438;6.978;2023-08-30T05:07:39;99436.34;;;17.19;94.81
2339;BME280;1180;51.438;6.978;2023-08-30T05:10:06;99442.03;;;17.23;94.17
2339;BME280;1180;51.438;6.978;2023-08-30T05:12:34;99440.41;;;17.22;94.41
2339;BME280;1180;51.438;6.978;2023-08-30T05:15:00;99434.41;;;17.21;94.50
2339;BME280;1180;51.438;6.978;2023-08-30T05:17:26;99431.38;;;17.26;94.78
2339;BME280;1180;51.438;6.978;2023-08-30T05:19:54;99420.22;;;17.33;94.07
2339;BME280;1180;51.438;6.978;2023-08-30T05:22:19;99428.16;;;17.32;93.65
2339;BME280;1180;51.438;6.978;2023-08-30T05:24:45;99413.25;;;17.34;93.39
2339;BME280;1180;51.438;6.978;2023-08-30T05:27:11;99413.56;;;17.31;93.48
2339;BME280;1180;51.438;6.978;2023-08-30T05:29:38;99404.19;;;17.38;93.03
2339;BME280;1180;51.438;6.978;2023-08-30T05:32:04;99411.97;;;17.38;93.10
2339;BME280;1180;51.438;6.978;2023-08-30T05:34:30;99411.31;;;17.36;92.83
2339;BME280;1180;51.438;6.978;2023-08-30T05:36:56;99403.38;;;17.38;93.04
2339;BME280;1180;51.438;6.978;2023-08-30T05:39:22;99400.63;;;17.39;93.02
2339;BME280;1180;51.438;6.978;2023-08-30T05:41:47;99401.31;;;17.50;92.50
2339;BME280;1180;51.438;6.978;2023-08-30T05:44:13;99401.81;;;17.53;92.17
2339;BME280;1180;51.438;6.978;2023-08-30T05:46:39;99385.25;;;17.46;91.61
2339;BME280;1180;51.438;6.978;2023-08-30T05:49:04;99391.59;;;17.52;92.06
2339;BME280;1180;51.438;6.978;2023-08-30T05:51:30;99386.25;;;17.53;91.87
2339;BME280;1180;51.438;6.978;2023-08-30T05:53:56;99388.69;;;17.55;91.70
2339;BME280;1180;51.438;6.978;2023-08-30T05:56:22;99389.47;;;17.47;92.07
2339;BME280;1180;51.438;6.978;2023-08-30T05:58:50;99384.47;;;17.54;92.18
2339;BME280;1180;51.438;6.978;2023-08-30T06:01:18;99385.44;;;17.53;92.35
2339;BME280;1180;51.438;6.978;2023-08-30T06:03:44;99385.63;;;17.59;91.78
2339;BME280;1180;51.438;6.978;2023-08-30T06:06:11;99380.28;;;17.69;91.71
2339;BME280;1180;51.438;6.978;2023-08-30T06:08:36;99381.91;;;17.70;91.44
2339;BME280;1180;51.438;6.978;2023-08-30T06:11:02;99381.25;;;17.60;92.09
2339;BME280;1180;51.438;6.978;2023-08-30T06:13:28;99376.06;;;17.60;92.34
2339;BME280;1180;51.438;6.978;2023-08-30T06:15:54;99374.59;;;17.66;92.08
2339;BME280;1180;51.438;6.978;2023-08-30T06:18:19;99375.56;;;17.65;92.02
2339;BME280;1180;51.438;6.978;2023-08-30T06:20:45;99371.22;;;17.73;91.58
2339;BME280;1180;51.438;6.978;2023-08-30T06:23:13;99371.72;;;17.77;91.71
2339;BME280;1180;51.438;6.978;2023-08-30T06:25:38;99376.59;;;17.80;91.20
2339;BME280;1180;51.438;6.978;2023-08-30T06:28:04;99370.56;;;17.80;91.39
2339;BME280;1180;51.438;6.978;2023-08-30T06:30:30;99369.59;;;17.81;91.46
2339;BME280;1180;51.438;6.978;2023-08-30T06:32:57;99361.34;;;17.85;91.60
2339;BME280;1180;51.438;6.978;2023-08-30T06:35:23;99371.91;;;17.92;91.40
2339;BME280;1180;51.438;6.978;2023-08-30T06:37:49;99369.97;;;17.94;91.63
2339;BME280;1180;51.438;6.978;2023-08-30T06:40:15;99361.53;;;17.92;91.85
2339;BME280;1180;51.438;6.978;2023-08-30T06:42:41;99366.06;;;17.98;91.33
2339;BME280;1180;51.438;6.978;2023-08-30T06:45:08;99363.81;;;18.03;91.35
2339;BME280;1180;51.438;6.978;2023-08-30T06:47:34;99369.66;;;18.06;90.59
2339;BME280;1180;51.438;6.978;2023-08-30T06:50:00;99359.44;;;18.12;90.45
2339;BME280;1180;51.438;6.978;2023-08-30T06:52:26;99361.41;;;18.10;90.30
2339;BME280;1180;51.438;6.978;2023-08-30T06:54:52;99354.91;;;18.23;90.52
2339;BME280;1180;51.438;6.978;2023-08-30T06:57:18;99357.66;;;18.29;89.71
2339;BME280;1180;51.438;6.978;2023-08-30T06:59:43;99362.84;;;18.38;89.26
2339;BME280;1180;51.438;6.978;2023-08-30T07:02:08;99359.28;;;18.39;88.83
2339;BME280;1180;51.438;6.978;2023-08-30T07:04:34;99356.19;;;18.43;88.66
2339;BME280;1180;51.438;6.978;2023-08-30T07:06:59;99361.84;;;18.47;88.68
2339;BME280;1180;51.438;6.978;2023-08-30T07:09:25;99348.38;;;18.52;88.37
2339;BME280;1180;51.438;6.978;2023-08-30T07:11:57;99347.22;;;18.54;88.20
2339;BME280;1180;51.438;6.978;2023-08-30T07:14:22;99350.97;;;18.60;87.66
2339;BME280;1180;51.438;6.978;2023-08-30T07:16:48;99341.84;;;18.64;87.50
2339;BME280;1180;51.438;6.978;2023-08-30T07:19:15;99346.56;;;18.69;86.96
2339;BME280;1180;51.438;6.978;2023-08-30T07:21:41;99343.31;;;18.67;87.22
2339;BME280;1180;51.438;6.978;2023-08-30T07:24:07;99343.97;;;18.69;86.74
2339;BME280;1180;51.438;6.978;2023-08-30T07:26:33;99334.34;;;18.77;86.60
2339;BME280;1180;51.438;6.978;2023-08-30T07:28:58;99325.75;;;18.77;86.46
2339;BME280;1180;51.438;6.978;2023-08-30T07:31:23;99338.69;;;18.85;86.15
2339;BME280;1180;51.438;6.978;2023-08-30T07:33:49;99332.06;;;18.83;85.30
2339;BME280;1180;51.438;6.978;2023-08-30T07:36:14;99339.16;;;18.97;85.43
2339;BME280;1180;51.438;6.978;2023-08-30T07:38:40;99331.53;;;19.04;85.18
2339;BME280;1180;51.438;6.978;2023-08-30T07:41:05;99330.50;;;19.13;84.73
2339;BME280;1180;51.438;6.978;2023-08-30T07:43:31;99334.56;;;19.16;84.07
2339;BME280;1180;51.438;6.978;2023-08-30T07:45:57;99324.03;;;19.09;82.95
2339;BME280;1180;51.438;6.978;2023-08-30T07:48:23;99325.50;;;19.12;82.90
2339;BME280;1180;51.438;6.978;2023-08-30T07:50:48;99320.16;;;19.05;82.73
2339;BME280;1180;51.438;6.978;2023-08-30T07:53:13;99325.31;;;19.13;81.38
2339;BME280;1180;51.438;6.978;2023-08-30T07:55:39;99324.75;;;19.26;81.74
2339;BME280;1180;51.438;6.978;2023-08-30T07:58:05;99328.94;;;19.36;81.16
2339;BME280;1180;51.438;6.978;2023-08-30T08:00:31;99319.63;;;19.41;80.71
2339;BME280;1180;51.438;6.978;2023-08-30T08:02:57;99320.06;;;19.53;80.32
2339;BME280;1180;51.438;6.978;2023-08-30T08:05:22;99331.91;;;19.56;80.12
2339;BME280;1180;51.438;6.978;2023-08-30T08:07:51;99330.97;;;19.48;79.44
2339;BME280;1180;51.438;6.978;2023-08-30T08:10:17;99330.41;;;19.61;79.50
2339;BME280;1180;51.438;6.978;2023-08-30T08:12:43;99333.84;;;19.62;78.04
2339;BME280;1180;51.438;6.978;2023-08-30T08:15:08;99347.47;;;19.64;77.52
2339;BME280;1180;51.438;6.978;2023-08-30T08:17:34;99341.84;;;19.75;77.05
2339;BME280;1180;51.438;6.978;2023-08-30T08:20:00;99328.78;;;19.84;76.45
2339;BME280;1180;51.438;6.978;2023-08-30T08:22:25;99331.84;;;19.87;74.28
2339;BME280;1180;51.438;6.978;2023-08-30T08:24:51;99329.41;;;19.94;73.31
2339;BME280;1180;51.438;6.978;2023-08-30T08:27:17;99322.50;;;20.01;72.62
2339;BME280;1180;51.438;6.978;2023-08-30T08:29:42;99332.84;;;20.10;72.14
2339;BME280;1180;51.438;6.978;2023-08-30T08:32:07;99328.63;;;20.09;71.54
2339;BME280;1180;51.438;6.978;2023-08-30T08:34:33;99332.72;;;20.03;71.74
2339;BME280;1180;51.438;6.978;2023-08-30T08:36:58;99333.19;;;20.06;71.59
2339;BME280;1180;51.438;6.978;2023-08-30T08:39:24;99329.53;;;20.16;71.47
2339;BME280;1180;51.438;6.978;2023-08-30T08:41:51;99332.53;;;20.28;71.66
2339;BME280;1180;51.438;6.978;2023-08-30T08:44:18;99328.41;;;20.33;72.16
2339;BME280;1180;51.438;6.978;2023-08-30T08:46:45;99322.22;;;20.49;72.13
2339;BME280;1180;51.438;6.978;2023-08-30T08:49:13;99322.03;;;20.66;71.31
2339;BME280;1180;51.438;6.978;2023-08-30T08:51:40;99323.88;;;20.81;70.46
2339;BME280;1180;51.438;6.978;2023-08-30T08:54:05;99322.69;;;20.83;70.08
2339;BME280;1180;51.438;6.978;2023-08-30T08:56:31;99324.84;;;20.95;69.67
2339;BME280;1180;51.438;6.978;2023-08-30T08:58:58;99314.81;;;21.13;68.83
2339;BME280;1180;51.438;6.978;2023-08-30T09:01:24;99319.47;;;21.33;68.73
2339;BME280;1180;51.438;6.978;2023-08-30T09:03:50;99322.31;;;21.38;67.24
2339;BME280;1180;51.438;6.978;2023-08-30T09:06:17;99320.09;;;21.35;66.12
2339;BME280;1180;51.438;6.978;2023-08-30T09:08:43;99324.47;;;21.34;67.39
2339;BME280;1180;51.438;6.978;2023-08-30T09:11:08;99313.38;;;21.26;66.43
2339;BME280;1180;51.438;6.978;2023-08-30T09:13:33;99328.41;;;21.24;66.36
2339;BME280;1180;51.438;6.978;2023-08-30T09:15:59;99320.56;;;21.24;67.30
2339;BME280;1180;51.438;6.978;2023-08-30T09:18:24;99315.78;;;21.27;66.71
2339;BME280;1180;51.438;6.978;2023-08-30T09:20:53;99318.13;;;21.22;67.46
2339;BME280;1180;51.438;6.978;2023-08-30T09:23:21;99320.91;;;21.20;66.39
2339;BME280;1180;51.438;6.978;2023-08-30T09:25:54;99318.44;;;21.12;66.65
2339;BME280;1180;51.438;6.978;2023-08-30T09:28:19;99314.03;;;21.13;67.15
2339;BME280;1180;51.438;6.978;2023-08-30T09:30:51;99311.59;;;21.11;66.39
2339;BME280;1180;51.438;6.978;2023-08-30T09:33:37;99316.09;;;21.02;67.16
2339;BME280;1180;51.438;6.978;2023-08-30T09:36:09;99321.69;;;20.84;67.99
2339;BME280;1180;51.438;6.978;2023-08-30T09:38:36;99315.94;;;20.74;70.13
2339;BME280;1180;51.438;6.978;2023-08-30T09:41:05;99318.16;;;20.77;71.26
2339;BME280;1180;51.438;6.978;2023-08-30T09:43:32;99313.16;;;20.75;72.14
2339;BME280;1180;51.438;6.978;2023-08-30T09:46:03;99306.03;;;20.54;71.25
2339;BME280;1180;51.438;6.978;2023-08-30T09:48:28;99305.34;;;20.60;72.27
2339;BME280;1180;51.438;6.978;2023-08-30T09:50:54;99307.94;;;20.45;72.93
2339;BME280;1180;51.438;6.978;2023-08-30T09:53:25;99317.38;;;20.46;76.05
2339;BME280;1180;51.438;6.978;2023-08-30T09:55:52;99301.53;;;20.48;77.69
2339;BME280;1180;51.438;6.978;2023-08-30T09:58:21;99300.13;;;20.45;79.19
2339;BME280;1180;51.438;6.978;2023-08-30T10:00:47;99298.66;;;20.43;82.35
2339;BME280;1180;51.438;6.978;2023-08-30T10:03:14;99302.88;;;20.29;83.74
2339;BME280;1180;51.438;6.978;2023-08-30T10:05:41;99302.09;;;20.28;83.46
2339;BME280;1180;51.438;6.978;2023-08-30T10:08:07;99309.06;;;20.28;84.01
2339;BME280;1180;51.438;6.978;2023-08-30T10:10:34;99298.00;;;20.11;84.49
2339;BME280;1180;51.438;6.978;2023-08-30T10:13:01;99302.56;;;20.09;86.29
2339;BME280;1180;51.438;6.978;2023-08-30T10:15:30;99296.09;;;20.04;86.99
2339;BME280;1180;51.438;6.978;2023-08-30T10:17:58;99299.59;;;19.97;87.56
2339;BME280;1180;51.438;6.978;2023-08-30T10:20:26;99291.53;;;19.83;88.54
2339;BME280;1180;51.438;6.978;2023-08-30T10:22:53;99291.25;;;19.78;90.27
2339;BME280;1180;51.438;6.978;2023-08-30T10:25:24;99291.41;;;19.76;91.88
2339;BME280;1180;51.438;6.978;2023-08-30T10:27:52;99294.66;;;19.78;92.66
2339;BME280;1180;51.438;6.978;2023-08-30T10:30:19;99291.88;;;19.80;93.10
2339;BME280;1180;51.438;6.978;2023-08-30T10:32:45;99293.03;;;19.77;92.88
2339;BME280;1180;51.438;6.978;2023-08-30T10:35:12;99299.59;;;19.73;93.24
2339;BME280;1180;51.438;6.978;2023-08-30T10:37:41;99303.16;;;19.72;92.78
2339;BME280;1180;51.438;6.978;2023-08-30T10:40:08;99298.81;;;19.65;92.76
2339;BME280;1180;51.438;6.978;2023-08-30T10:42:34;99297.22;;;19.63;92.62
2339;BME280;1180;51.438;6.978;2023-08-30T10:45:05;99301.50;;;19.56;94.69
2339;BME280;1180;51.438;6.978;2023-08-30T10:47:33;99302.41;;;19.63;94.53
2339;BME280;1180;51.438;6.978;2023-08-30T10:50:06;99303.75;;;19.59;95.65
2339;BME280;1180;51.438;6.978;2023-08-30T10:52:32;99301.66;;;19.55;95.51
2339;BME280;1180;51.438;6.978;2023-08-30T10:55:11;99303.34;;;19.47;96.17
2339;BME280;1180;51.438;6.978;2023-08-30T10:57:37;99312.13;;;19.46;95.63
2339;BME280;1180;51.438;6.978;2023-08-30T11:02:34;99299.31;;;19.45;96.36
2339;BME280;1180;51.438;6.978;2023-08-30T11:05:00;99296.69;;;19.45;97.42
2339;BME280;1180;51.438;6.978;2023-08-30T11:07:26;99299.25;;;19.53;96.64
2339;BME280;1180;51.438;6.978;2023-08-30T11:09:52;99299.41;;;19.52;97.14
2339;BME280;1180;51.438;6.978;2023-08-30T11:12:18;99305.94;;;19.47;96.92
2339;BME280;1180;51.438;6.978;2023-08-30T11:14:45;99303.38;;;19.39;96.75
2339;BME280;1180;51.438;6.978;2023-08-30T11:17:11;99306.50;;;19.34;96.99
2339;BME280;1180;51.438;6.978;2023-08-30T11:19:36;99294.22;;;19.20;96.19
2339;BME280;1180;51.438;6.978;2023-08-30T11:22:02;99295.16;;;19.27;97.27
2339;BME280;1180;51.438;6.978;2023-08-30T11:24:28;99300.03;;;19.30;96.69
2339;BME280;1180;51.438;6.978;2023-08-30T11:26:54;99290.94;;;19.26;97.09
2339;BME280;1180;51.438;6.978;2023-08-30T11:29:20;99297.22;;;19.09;97.23
2339;BME280;1180;51.438;6.978;2023-08-30T11:31:46;99300.13;;;19.05;97.38
2339;BME280;1180;51.438;6.978;2023-08-30T11:34:12;99300.81;;;19.08;98.04
2339;BME280;1180;51.438;6.978;2023-08-30T11:36:38;99300.66;;;19.01;97.16
2339;BME280;1180;51.438;6.978;2023-08-30T11:39:04;99296.41;;;19.08;97.84
2339;BME280;1180;51.438;6.978;2023-08-30T11:41:31;99292.34;;;19.05;97.48
2339;BME280;1180;51.438;6.978;2023-08-30T11:43:58;99292.81;;;19.09;97.85
2339;BME280;1180;51.438;6.978;2023-08-30T11:46:24;99286.81;;;19.09;98.83
2339;BME280;1180;51.438;6.978;2023-08-30T11:48:51;99297.53;;;19.05;99.01
2339;BME280;1180;51.438;6.978;2023-08-30T11:51:18;99290.59;;;18.98;98.90
2339;BME280;1180;51.438;6.978;2023-08-30T11:53:46;99285.06;;;19.01;98.89
2339;BME280;1180;51.438;6.978;2023-08-30T11:56:12;99289.09;;;19.03;98.42
2339;BME280;1180;51.438;6.978;2023-08-30T11:58:38;99293.84;;;19.00;97.95
2339;BME280;1180;51.438;6.978;2023-08-30T12:01:04;99292.22;;;18.99;98.92
2339;BME280;1180;51.438;6.978;2023-08-30T12:03:31;99301.13;;;18.96;97.59
2339;BME280;1180;51.438;6.978;2023-08-30T12:05:57;99298.53;;;18.96;98.03
2339;BME280;1180;51.438;6.978;2023-08-30T12:08:27;99289.78;;;18.89;98.42
2339;BME280;1180;51.438;6.978;2023-08-30T12:10:53;99296.44;;;19.00;98.67
2339;BME280;1180;51.438;6.978;2023-08-30T12:13:29;99294.72;;;19.15;98.88
2339;BME280;1180;51.438;6.978;2023-08-30T12:15:57;99285.94;;;19.16;99.74
2339;BME280;1180;51.438;6.978;2023-08-30T12:18:31;99271.31;;;19.24;98.29
2339;BME280;1180;51.438;6.978;2023-08-30T12:20:57;99291.06;;;19.33;98.42
2339;BME280;1180;51.438;6.978;2023-08-30T12:23:25;99294.13;;;19.37;98.73
2339;BME280;1180;51.438;6.978;2023-08-30T12:26:05;99292.00;;;19.40;98.06
2339;BME280;1180;51.438;6.978;2023-08-30T12:28:40;99288.06;;;19.44;97.86
2339;BME280;1180;51.438;6.978;2023-08-30T12:31:07;99286.28;;;19.45;97.50
2339;BME280;1180;51.438;6.978;2023-08-30T12:33:34;99280.59;;;19.41;97.77
2339;BME280;1180;51.438;6.978;2023-08-30T12:36:00;99276.38;;;19.40;97.89
2339;BME280;1180;51.438;6.978;2023-08-30T12:38:26;99261.53;;;19.49;99.26
2339;BME280;1180;51.438;6.978;2023-08-30T12:40:53;99264.53;;;19.38;98.20
2339;BME280;1180;51.438;6.978;2023-08-30T12:43:20;99269.97;;;19.51;99.46
2339;BME280;1180;51.438;6.978;2023-08-30T12:45:47;99266.22;;;19.54;99.41
2339;BME280;1180;51.438;6.978;2023-08-30T12:48:15;99275.63;;;19.55;99.26
2339;BME280;1180;51.438;6.978;2023-08-30T12:50:42;99266.03;;;19.55;99.47
2339;BME280;1180;51.438;6.978;2023-08-30T12:53:08;99258.06;;;19.57;99.44
2339;BME280;1180;51.438;6.978;2023-08-30T12:55:34;99262.97;;;19.52;99.83
2339;BME280;1180;51.438;6.978;2023-08-30T12:58:01;99266.56;;;19.51;99.72
2339;BME280;1180;51.438;6.978;2023-08-30T13:00:28;99266.28;;;19.45;99.22
2339;BME280;1180;51.438;6.978;2023-08-30T13:02:53;99260.09;;;19.46;99.50
2339;BME280;1180;51.438;6.978;2023-08-30T13:05:19;99260.78;;;19.40;99.02
2339;BME280;1180;51.438;6.978;2023-08-30T13:07:45;99276.09;;;19.35;99.12
2339;BME280;1180;51.438;6.978;2023-08-30T13:10:10;99269.28;;;19.34;100.00
2339;BME280;1180;51.438;6.978;2023-08-30T13:12:37;99259.22;;;19.31;100.00
2339;BME280;1180;51.438;6.978;2023-08-30T13:15:03;99259.66;;;19.34;100.00
2339;BME280;1180;51.438;6.978;2023-08-30T13:17:29;99267.38;;;19.28;99.28
2339;BME280;1180;51.438;6.978;2023-08-30T13:19:55;99260.03;;;19.31;100.00
2339;BME280;1180;51.438;6.978;2023-08-30T13:22:22;99259.56;;;19.28;100.00
2339;BME280;1180;51.438;6.978;2023-08-30T13:24:47;99259.31;;;19.14;100.00